createdAt,value
2022-12-04T00:01:27.129Z,18.80
2022-12-04T00:03:57.902Z,18.70
2022-12-04T00:06:26.173Z,18.40
2022-12-04T00:08:55.684Z,18.20
2022-12-04T00:11:26.673Z,18.00
2022-12-04T00:13:54.756Z,18.00
2022-12-04T00:16:24.999Z,17.90
2022-12-04T00:18:54.463Z,17.50
2022-12-04T00:21:25.033Z,17.50
2022-12-04T00:23:53.175Z,17.50
2022-12-04T00:26:23.712Z,17.30
2022-12-04T00:28:52.193Z,17.50
2022-12-04T00:31:22.594Z,17.60
2022-12-04T00:33:51.116Z,17.60
2022-12-04T00:36:21.204Z,17.80
2022-12-04T00:38:50.550Z,18.10
2022-12-04T00:41:20.431Z,18.00
2022-12-04T00:43:48.446Z,17.90
2022-12-04T00:46:17.019Z,17.90
2022-12-04T00:48:45.559Z,18.00
2022-12-04T00:51:15.446Z,18.20
2022-12-04T00:53:43.873Z,18.20
2022-12-04T00:56:15.687Z,18.10
2022-12-04T00:58:45.345Z,18.00
2022-12-04T01:01:15.463Z,18.00
2022-12-04T01:03:44.413Z,17.90
2022-12-04T01:06:19.805Z,17.90
2022-12-04T01:08:48.211Z,18.00
2022-12-04T01:11:18.388Z,17.40
2022-12-04T01:13:46.605Z,17.50
2022-12-04T01:16:19.018Z,17.50
2022-12-04T01:18:47.457Z,17.60
2022-12-04T01:21:17.374Z,17.60
2022-12-04T01:23:45.723Z,17.70
2022-12-04T01:26:15.669Z,17.70
2022-12-04T01:28:45.083Z,17.40
2022-12-04T01:31:15.855Z,17.30
2022-12-04T01:33:44.525Z,17.30
2022-12-04T01:36:14.243Z,16.90
2022-12-04T01:38:43.039Z,17.10
2022-12-04T01:41:12.964Z,17.20
2022-12-04T01:43:42.042Z,17.20
2022-12-04T01:46:12.251Z,17.30
2022-12-04T01:48:45.140Z,17.70
2022-12-04T01:51:18.572Z,18.00
2022-12-04T01:53:50.078Z,18.20
2022-12-04T01:56:19.112Z,18.30
2022-12-04T01:58:52.091Z,18.10
2022-12-04T02:01:21.745Z,17.90
2022-12-04T02:03:50.185Z,17.90
2022-12-04T02:06:18.203Z,18.10
2022-12-04T02:08:46.372Z,18.10
2022-12-04T02:11:24.679Z,17.90
2022-12-04T02:14:01.487Z,17.90
2022-12-04T02:16:39.381Z,17.80
2022-12-04T02:19:22.943Z,17.70
2022-12-04T02:21:55.520Z,17.90
2022-12-04T02:24:37.498Z,17.40
2022-12-04T02:27:09.360Z,17.30
2022-12-04T02:29:46.935Z,17.30
2022-12-04T02:32:20.571Z,17.50
2022-12-04T02:34:56.485Z,17.50
2022-12-04T02:37:30.886Z,17.40
2022-12-04T02:40:05.814Z,17.30
2022-12-04T02:42:41.872Z,17.50
2022-12-04T02:45:15.699Z,17.70
2022-12-04T02:47:45.228Z,17.30
2022-12-04T02:50:15.647Z,16.60
2022-12-04T02:52:48.072Z,16.30
2022-12-04T02:55:20.214Z,16.30
2022-12-04T02:57:52.134Z,16.60
2022-12-04T03:00:22.900Z,16.50
2022-12-04T03:02:56.402Z,16.90
2022-12-04T03:05:30.439Z,16.80
2022-12-04T03:08:01.818Z,16.30
2022-12-04T03:10:35.052Z,16.60
2022-12-04T03:13:08.191Z,16.40
2022-12-04T03:15:42.801Z,16.20
2022-12-04T03:18:15.802Z,16.50
2022-12-04T03:20:46.581Z,16.70
2022-12-04T03:23:21.909Z,17.20
2022-12-04T03:25:57.035Z,17.00
2022-12-04T03:28:30.053Z,17.00
2022-12-04T03:31:05.762Z,17.30
2022-12-04T03:33:39.101Z,16.90
2022-12-04T03:36:14.933Z,17.20
2022-12-04T03:38:47.373Z,17.30
2022-12-04T03:41:21.759Z,17.10
2022-12-04T03:43:54.521Z,17.50
2022-12-04T03:46:29.029Z,17.50
2022-12-04T03:49:02.225Z,17.60
2022-12-04T03:51:35.121Z,17.20
2022-12-04T03:54:07.711Z,16.70
2022-12-04T03:56:39.601Z,17.10
2022-12-04T03:59:12.709Z,17.20
2022-12-04T04:01:47.316Z,17.30
2022-12-04T04:04:22.758Z,17.20
2022-12-04T04:06:54.830Z,17.40
2022-12-04T04:09:25.846Z,17.00
2022-12-04T04:11:57.997Z,17.10
2022-12-04T04:14:47.094Z,17.40
2022-12-04T04:17:38.887Z,17.00
2022-12-04T04:20:29.069Z,17.10
2022-12-04T04:23:19.081Z,16.80
2022-12-04T04:25:48.555Z,16.90
2022-12-04T04:28:34.129Z,16.80
2022-12-04T04:31:17.699Z,17.10
2022-12-04T04:33:56.985Z,17.00
2022-12-04T04:36:32.539Z,17.00
2022-12-04T04:39:04.912Z,17.00
2022-12-04T04:41:39.572Z,16.80
2022-12-04T04:44:16.153Z,17.00
2022-12-04T04:46:49.566Z,17.30
2022-12-04T04:49:21.016Z,17.00
2022-12-04T04:51:49.251Z,16.80
2022-12-04T04:54:18.737Z,16.80
2022-12-04T04:56:48.310Z,17.10
2022-12-04T04:59:16.607Z,17.30
2022-12-04T05:01:46.663Z,17.30
2022-12-04T05:04:15.062Z,17.40
2022-12-04T05:06:44.345Z,16.90
2022-12-04T05:09:12.309Z,17.30
2022-12-04T05:11:40.292Z,17.30
2022-12-04T05:14:09.481Z,17.20
2022-12-04T05:16:37.631Z,17.20
2022-12-04T05:19:23.244Z,17.20
2022-12-04T05:21:52.546Z,16.90
2022-12-04T05:24:20.532Z,16.60
2022-12-04T05:26:48.481Z,16.70
2022-12-04T05:29:16.421Z,17.20
2022-12-04T05:31:44.421Z,17.40
2022-12-04T05:34:12.441Z,17.50
2022-12-04T05:36:40.633Z,17.60
2022-12-04T05:39:09.891Z,17.60
2022-12-04T05:41:37.868Z,17.50
2022-12-04T05:44:05.941Z,17.30
2022-12-04T05:46:34.056Z,17.20
2022-12-04T05:49:02.053Z,17.50
2022-12-04T05:51:30.042Z,17.20
2022-12-04T05:53:57.990Z,17.20
2022-12-04T05:56:27.281Z,17.40
2022-12-04T05:58:55.251Z,17.30
2022-12-04T06:01:25.562Z,17.30
2022-12-04T06:03:53.508Z,17.30
2022-12-04T06:06:23.835Z,17.10
2022-12-04T06:08:53.235Z,16.50
2022-12-04T06:11:23.657Z,16.50
2022-12-04T06:13:53.265Z,16.70
2022-12-04T06:16:23.737Z,16.60
2022-12-04T06:18:52.776Z,16.90
2022-12-04T06:21:22.638Z,17.10
2022-12-04T06:23:51.428Z,17.40
2022-12-04T06:26:19.762Z,17.30
2022-12-04T06:28:47.762Z,17.00
2022-12-04T06:31:18.949Z,16.70
2022-12-04T06:33:48.102Z,16.30
2022-12-04T06:36:18.195Z,16.30
2022-12-04T06:38:46.654Z,16.20
2022-12-04T06:41:16.868Z,16.40
2022-12-04T06:43:45.475Z,16.60
2022-12-04T06:46:15.294Z,16.50
2022-12-04T06:48:44.695Z,16.50
2022-12-04T06:51:14.120Z,16.40
2022-12-04T06:53:42.792Z,16.50
2022-12-04T06:56:14.237Z,16.60
2022-12-04T06:58:42.227Z,16.20
2022-12-04T07:01:12.139Z,16.00
2022-12-04T07:03:43.601Z,15.80
2022-12-04T07:06:19.477Z,16.10
2022-12-04T07:08:49.383Z,16.50
2022-12-04T07:11:18.026Z,16.60
2022-12-04T07:13:46.121Z,16.70
2022-12-04T07:16:16.410Z,16.70
2022-12-04T07:18:44.593Z,16.60
2022-12-04T07:21:16.751Z,16.30
2022-12-04T07:23:46.967Z,15.90
2022-12-04T07:26:15.412Z,16.20
2022-12-04T07:28:45.110Z,16.40
2022-12-04T07:31:16.095Z,16.60
2022-12-04T07:33:45.405Z,16.20
2022-12-04T07:36:18.011Z,16.40
2022-12-04T07:38:47.659Z,16.60
2022-12-04T07:41:16.400Z,16.60
2022-12-04T07:43:44.742Z,16.80
2022-12-04T07:46:14.639Z,16.70
2022-12-04T07:48:42.758Z,16.50
2022-12-04T07:51:14.054Z,16.50
2022-12-04T07:53:42.318Z,16.60
2022-12-04T07:56:13.084Z,16.80
2022-12-04T07:58:41.587Z,16.50
2022-12-04T08:01:12.288Z,16.10
2022-12-04T08:03:46.682Z,16.20
2022-12-04T08:06:17.419Z,16.70
2022-12-04T08:08:46.549Z,16.90
2022-12-04T08:11:18.602Z,17.20
2022-12-04T08:13:46.866Z,16.80
2022-12-04T08:16:15.915Z,16.90
2022-12-04T08:18:48.370Z,16.60
2022-12-04T08:21:19.229Z,16.70
2022-12-04T08:23:47.778Z,16.80
2022-12-04T08:26:20.461Z,16.60
2022-12-04T08:28:48.841Z,17.10
2022-12-04T08:31:19.814Z,17.10
2022-12-04T08:33:49.734Z,17.10
2022-12-04T08:36:20.178Z,17.30
2022-12-04T08:38:48.660Z,17.00
2022-12-04T08:41:20.591Z,17.10
2022-12-04T08:43:48.638Z,16.80
2022-12-04T08:46:19.437Z,16.90
2022-12-04T08:48:47.926Z,16.90
2022-12-04T08:51:17.900Z,16.80
2022-12-04T08:53:46.658Z,16.70
2022-12-04T08:56:15.325Z,17.10
2022-12-04T08:58:44.609Z,17.10
2022-12-04T09:01:14.595Z,17.40
2022-12-04T09:03:42.974Z,17.50
2022-12-04T09:06:13.073Z,17.10
2022-12-04T09:08:41.681Z,16.90
2022-12-04T09:11:14.273Z,16.60
2022-12-04T09:13:44.545Z,16.50
2022-12-04T09:16:14.866Z,16.20
2022-12-04T09:18:43.467Z,16.10
2022-12-04T09:21:13.845Z,15.90
2022-12-04T09:23:42.778Z,16.10
2022-12-04T09:26:20.074Z,16.40
2022-12-04T09:28:49.933Z,16.50
2022-12-04T09:31:18.519Z,16.80
2022-12-04T09:33:47.316Z,17.00
2022-12-04T09:36:16.905Z,16.90
2022-12-04T09:38:46.014Z,16.80
2022-12-04T09:41:37.168Z,16.20
2022-12-04T09:44:11.947Z,16.10
2022-12-04T09:46:45.681Z,16.20
2022-12-04T09:49:18.534Z,16.30
2022-12-04T09:51:47.453Z,16.60
2022-12-04T09:54:22.653Z,16.70
2022-12-04T09:56:56.557Z,16.60
2022-12-04T09:59:28.228Z,16.50
2022-12-04T10:02:03.161Z,16.40
2022-12-04T10:04:31.929Z,16.40
2022-12-04T10:07:08.732Z,16.90
2022-12-04T10:09:49.043Z,17.10
2022-12-04T10:12:24.272Z,17.40
2022-12-04T10:15:03.535Z,17.10
2022-12-04T10:18:00.366Z,17.20
2022-12-04T10:20:53.409Z,17.40
2022-12-04T10:23:35.339Z,17.50
2022-12-04T10:26:06.285Z,17.40
2022-12-04T10:28:38.991Z,17.50
2022-12-04T10:31:14.969Z,17.10
2022-12-04T10:33:47.304Z,16.80
2022-12-04T10:36:18.752Z,17.10
2022-12-04T10:38:50.512Z,17.10
2022-12-04T10:41:25.552Z,17.00
2022-12-04T10:43:53.666Z,17.10
2022-12-04T10:46:26.713Z,17.20
2022-12-04T10:49:01.795Z,17.30
2022-12-04T10:51:34.641Z,17.60
2022-12-04T10:54:02.842Z,17.50
2022-12-04T10:56:31.058Z,17.50
2022-12-04T10:59:01.022Z,18.00
2022-12-04T11:01:32.295Z,17.50
2022-12-04T11:04:03.374Z,17.40
2022-12-04T11:06:32.320Z,17.40
2022-12-04T11:09:02.453Z,17.60
2022-12-04T11:11:33.520Z,17.30
2022-12-04T11:14:03.480Z,17.40
2022-12-04T11:16:39.587Z,17.40
2022-12-04T11:19:22.164Z,17.30
2022-12-04T11:21:52.777Z,17.30
2022-12-04T11:24:24.396Z,17.00
2022-12-04T11:26:53.115Z,17.00
2022-12-04T11:29:27.475Z,17.20
2022-12-04T11:32:01.442Z,17.10
2022-12-04T11:34:37.100Z,17.40
2022-12-04T11:37:07.903Z,17.20
2022-12-04T11:39:40.352Z,17.00
2022-12-04T11:42:18.269Z,17.10
2022-12-04T11:44:53.194Z,16.90
2022-12-04T11:47:26.089Z,16.90
2022-12-04T11:50:06.460Z,17.00
2022-12-04T11:52:49.491Z,17.30
2022-12-04T11:55:29.097Z,17.30
2022-12-04T11:58:16.678Z,17.50
2022-12-04T12:00:50.375Z,17.50
2022-12-04T12:03:26.095Z,17.80
2022-12-04T12:06:17.276Z,17.80
2022-12-04T12:09:00.482Z,17.80
2022-12-04T12:11:34.367Z,17.60
2022-12-04T12:14:10.412Z,17.40
2022-12-04T12:16:55.130Z,17.50
2022-12-04T12:19:47.754Z,17.30
2022-12-04T12:22:26.730Z,16.90
2022-12-04T12:25:04.571Z,16.70
2022-12-04T12:27:48.521Z,17.00
2022-12-04T12:30:17.734Z,16.90
2022-12-04T12:33:05.945Z,17.00
2022-12-04T12:35:40.644Z,17.50
2022-12-04T12:38:12.797Z,17.40
2022-12-04T12:40:43.976Z,17.80
2022-12-04T12:43:16.996Z,18.20
2022-12-04T12:45:52.612Z,17.90
2022-12-04T12:48:31.384Z,18.30
2022-12-04T12:51:29.227Z,18.70
2022-12-04T12:53:56.692Z,18.70
2022-12-04T12:56:46.115Z,18.60
2022-12-04T12:59:22.228Z,18.60
2022-12-04T13:02:00.556Z,18.80
2022-12-04T13:04:35.994Z,18.70
2022-12-04T13:07:27.450Z,18.70
2022-12-04T13:10:01.680Z,18.50
2022-12-04T13:12:30.443Z,18.00
2022-12-04T13:14:59.043Z,17.70
2022-12-04T13:17:34.106Z,17.20
2022-12-04T13:20:10.277Z,17.00
2022-12-04T13:22:50.872Z,17.10
2022-12-04T13:25:44.615Z,17.60
2022-12-04T13:28:28.345Z,17.80
2022-12-04T13:31:04.401Z,18.00
2022-12-04T13:34:05.206Z,17.60
2022-12-04T13:36:53.301Z,17.70
2022-12-04T13:39:37.379Z,18.10
2022-12-04T13:42:07.528Z,18.40
2022-12-04T13:44:36.490Z,18.90
2022-12-04T13:47:06.674Z,19.20
2022-12-04T13:49:36.396Z,19.30
2022-12-04T13:52:07.447Z,19.50
2022-12-04T13:54:38.016Z,19.80
2022-12-04T13:57:20.918Z,19.70
2022-12-04T13:59:50.287Z,19.90
2022-12-04T14:02:29.722Z,20.20
2022-12-04T14:05:00.978Z,20.30
2022-12-04T14:07:34.365Z,20.20
2022-12-04T14:10:07.197Z,20.20
2022-12-04T14:12:38.816Z,20.00
2022-12-04T14:15:08.669Z,20.10
2022-12-04T14:17:39.271Z,20.30
2022-12-04T14:20:22.524Z,20.00
2022-12-04T14:22:50.546Z,19.70
2022-12-04T14:25:38.943Z,19.70
2022-12-04T14:28:26.730Z,18.90
2022-12-04T14:31:14.443Z,18.90
2022-12-04T14:33:46.389Z,19.00
2022-12-04T14:36:20.051Z,19.00
2022-12-04T14:38:51.741Z,18.80
2022-12-04T14:41:27.827Z,18.60
2022-12-04T14:43:57.375Z,18.30
2022-12-04T14:46:33.127Z,18.30
2022-12-04T14:49:15.902Z,18.70
2022-12-04T14:51:49.301Z,18.70
2022-12-04T14:54:32.455Z,18.30
2022-12-04T14:57:19.822Z,18.10
2022-12-04T14:59:50.048Z,18.00
2022-12-04T15:02:20.535Z,17.10
2022-12-04T15:04:51.002Z,16.70
2022-12-04T15:07:21.245Z,17.00
2022-12-04T15:10:11.628Z,17.00
2022-12-04T15:12:49.533Z,16.90
2022-12-04T15:15:25.009Z,17.10
2022-12-04T15:18:00.963Z,17.70
2022-12-04T15:20:33.408Z,17.30
2022-12-04T15:23:05.917Z,17.20
2022-12-04T15:25:41.081Z,16.90
2022-12-04T15:28:16.351Z,16.80
2022-12-04T15:30:48.836Z,16.70
2022-12-04T15:33:21.684Z,16.70
2022-12-04T15:35:53.588Z,16.40
2022-12-04T15:38:22.082Z,16.30
2022-12-04T15:40:57.738Z,15.80
2022-12-04T15:43:30.693Z,16.00
2022-12-04T15:45:59.483Z,15.70
2022-12-04T15:48:28.933Z,15.50
2022-12-04T15:50:59.289Z,15.70
2022-12-04T15:53:30.410Z,15.70
2022-12-04T15:56:02.855Z,15.80
2022-12-04T15:58:34.472Z,16.00
2022-12-04T16:01:05.105Z,16.60
2022-12-04T16:03:37.056Z,16.60
2022-12-04T16:06:18.898Z,16.70
2022-12-04T16:08:48.652Z,17.00
2022-12-04T16:11:32.597Z,17.20
2022-12-04T16:14:15.813Z,17.20
2022-12-04T16:16:46.240Z,16.50
2022-12-04T16:19:18.535Z,16.40
2022-12-04T16:21:46.646Z,16.60
2022-12-04T16:24:20.344Z,16.40
2022-12-04T16:26:50.656Z,15.90
2022-12-04T16:29:20.077Z,15.70
2022-12-04T16:31:48.325Z,15.50
2022-12-04T16:34:16.927Z,15.60
2022-12-04T16:36:44.995Z,15.90
2022-12-04T16:39:12.923Z,16.30
2022-12-04T16:41:41.645Z,16.40
2022-12-04T16:44:14.838Z,16.50
2022-12-04T16:46:46.757Z,16.60
2022-12-04T16:49:16.856Z,16.40
2022-12-04T16:51:49.499Z,16.40
2022-12-04T16:54:18.102Z,16.60
2022-12-04T16:56:46.079Z,16.50
2022-12-04T16:59:14.098Z,16.90
2022-12-04T17:01:47.496Z,16.80
2022-12-04T17:04:16.668Z,16.80
2022-12-04T17:06:45.302Z,16.80
2022-12-04T17:09:14.800Z,16.80
2022-12-04T17:11:43.090Z,17.00
2022-12-04T17:14:11.449Z,16.90
2022-12-04T17:16:42.388Z,17.30
2022-12-04T17:19:12.453Z,17.20
2022-12-04T17:21:41.636Z,17.10
2022-12-04T17:24:09.934Z,16.50
2022-12-04T17:26:39.146Z,15.90
2022-12-04T17:29:07.152Z,15.50
2022-12-04T17:31:37.213Z,15.40
2022-12-04T17:34:07.590Z,15.50
2022-12-04T17:36:36.949Z,15.60
2022-12-04T17:39:07.230Z,15.90
2022-12-04T17:41:35.583Z,16.00
2022-12-04T17:44:04.265Z,16.00
2022-12-04T17:46:32.544Z,15.90
2022-12-04T17:49:06.575Z,16.10
2022-12-04T17:51:36.977Z,16.10
2022-12-04T17:54:05.614Z,16.50
2022-12-04T17:56:33.624Z,16.80
2022-12-04T17:59:01.553Z,16.90
2022-12-04T18:01:31.462Z,16.30
2022-12-04T18:04:01.797Z,15.90
2022-12-04T18:06:32.382Z,16.20
2022-12-04T18:09:02.018Z,16.30
2022-12-04T18:11:32.091Z,16.30
2022-12-04T18:14:03.151Z,16.50
2022-12-04T18:16:36.969Z,16.20
2022-12-04T18:19:05.724Z,16.30
2022-12-04T18:21:34.970Z,16.10
2022-12-04T18:24:05.959Z,15.90
2022-12-04T18:26:35.894Z,15.60
2022-12-04T18:29:04.757Z,15.10
2022-12-04T18:31:33.552Z,15.00
2022-12-04T18:34:02.041Z,15.20
2022-12-04T18:36:33.235Z,15.10
2022-12-04T18:39:05.610Z,15.50
2022-12-04T18:41:34.203Z,15.50
2022-12-04T18:44:02.953Z,15.60
2022-12-04T18:46:31.245Z,15.80
2022-12-04T18:49:02.256Z,15.60
2022-12-04T18:51:31.921Z,15.70
2022-12-04T18:54:02.189Z,16.10
2022-12-04T18:56:33.642Z,16.20
2022-12-04T18:59:04.865Z,16.20
2022-12-04T19:01:33.171Z,16.00
2022-12-04T19:04:03.990Z,15.80
2022-12-04T19:06:33.503Z,15.90
2022-12-04T19:09:04.284Z,15.60
2022-12-04T19:11:33.823Z,15.50
2022-12-04T19:14:08.283Z,15.50
2022-12-04T19:16:40.769Z,15.30
2022-12-04T19:19:08.988Z,15.60
2022-12-04T19:21:37.225Z,15.50
2022-12-04T19:24:05.994Z,15.50
2022-12-04T19:26:37.599Z,15.30
2022-12-04T19:29:06.979Z,15.40
2022-12-04T19:31:37.686Z,15.80
2022-12-04T19:34:06.864Z,15.90
2022-12-04T19:36:35.556Z,15.40
2022-12-04T19:39:05.573Z,15.20
2022-12-04T19:41:37.064Z,15.10
2022-12-04T19:44:26.415Z,15.00
2022-12-04T19:46:53.875Z,15.00
2022-12-04T19:49:22.071Z,15.00
2022-12-04T19:51:51.770Z,15.10
2022-12-04T19:54:20.945Z,15.30
2022-12-04T19:56:52.595Z,15.40
2022-12-04T19:59:21.155Z,15.50
2022-12-04T20:01:49.155Z,15.50
2022-12-04T20:04:19.497Z,15.60
2022-12-04T20:06:48.383Z,15.30
2022-12-04T20:09:19.520Z,14.80
2022-12-04T20:11:47.905Z,14.80
2022-12-04T20:14:17.306Z,15.00
2022-12-04T20:16:46.241Z,14.70
2022-12-04T20:19:16.110Z,14.80
2022-12-04T20:21:44.652Z,14.90
2022-12-04T20:24:14.708Z,14.60
2022-12-04T20:26:45.164Z,14.90
2022-12-04T20:29:19.034Z,14.90
2022-12-04T20:31:47.557Z,14.90
2022-12-04T20:34:18.049Z,14.80
2022-12-04T20:36:48.823Z,15.10
2022-12-04T20:39:18.139Z,15.40
2022-12-04T20:41:46.348Z,15.50
2022-12-04T20:44:17.809Z,14.80
2022-12-04T20:46:46.979Z,15.10
2022-12-04T20:49:21.609Z,15.30
2022-12-04T20:51:51.808Z,15.30
2022-12-04T20:54:21.509Z,15.50
2022-12-04T20:56:52.702Z,15.40
2022-12-04T20:59:23.813Z,14.70
2022-12-04T21:01:52.703Z,14.50
2022-12-04T21:04:21.136Z,15.10
2022-12-04T21:06:49.135Z,15.40
2022-12-04T21:09:19.538Z,14.90
2022-12-04T21:11:50.050Z,14.50
2022-12-04T21:14:37.293Z,14.40
2022-12-04T21:17:12.928Z,14.30
2022-12-04T21:19:43.122Z,14.20
2022-12-04T21:22:11.098Z,14.80
2022-12-04T21:24:39.237Z,14.90
2022-12-04T21:27:09.022Z,15.20
2022-12-04T21:29:37.742Z,14.90
2022-12-04T21:32:07.042Z,15.30
2022-12-04T21:34:36.569Z,15.30
2022-12-04T21:37:04.597Z,15.10
2022-12-04T21:39:32.801Z,15.20
2022-12-04T21:42:18.145Z,15.40
2022-12-04T21:44:46.676Z,15.60
2022-12-04T21:47:14.626Z,15.30
2022-12-04T21:49:43.980Z,15.10
2022-12-04T21:52:14.060Z,14.90
2022-12-04T21:54:42.033Z,15.20
2022-12-04T21:57:09.956Z,15.10
2022-12-04T21:59:38.372Z,15.20
2022-12-04T22:02:06.423Z,15.30
2022-12-04T22:04:34.509Z,15.40
2022-12-04T22:07:03.964Z,15.50
2022-12-04T22:09:31.938Z,15.70
2022-12-04T22:12:00.190Z,15.90
2022-12-04T22:14:28.188Z,15.60
2022-12-04T22:16:56.198Z,15.70
2022-12-04T22:19:24.198Z,16.00
2022-12-04T22:21:52.129Z,15.90
2022-12-04T22:24:22.600Z,15.70
2022-12-04T22:26:50.630Z,15.50
2022-12-04T22:29:48.584Z,15.40
2022-12-04T22:32:06.601Z,15.00
2022-12-04T22:34:34.762Z,15.50
2022-12-04T22:37:02.723Z,16.00
2022-12-04T22:39:33.489Z,16.30
2022-12-04T22:42:01.459Z,16.20
2022-12-04T22:44:29.389Z,16.20
2022-12-04T22:47:01.025Z,15.90
2022-12-04T22:49:28.963Z,16.10
2022-12-04T22:51:59.393Z,15.90
2022-12-04T22:54:27.346Z,15.90
2022-12-04T22:56:57.183Z,15.70
2022-12-04T22:59:25.236Z,15.90
2022-12-04T23:01:53.380Z,15.60
2022-12-04T23:04:21.379Z,15.40
2022-12-04T23:06:49.453Z,15.70
2022-12-04T23:09:18.841Z,16.10
2022-12-04T23:11:51.024Z,15.50
2022-12-04T23:14:20.655Z,15.20
2022-12-04T23:16:48.982Z,14.80
2022-12-04T23:19:19.748Z,14.80
2022-12-04T23:21:52.065Z,14.90
2022-12-04T23:24:24.633Z,14.80
2022-12-04T23:26:52.626Z,14.90
2022-12-04T23:29:52.847Z,14.70
2022-12-04T23:32:09.888Z,14.90
2022-12-04T23:34:37.889Z,15.10
2022-12-04T23:37:05.937Z,15.10
2022-12-04T23:39:35.988Z,15.20
2022-12-04T23:42:04.043Z,15.30
2022-12-04T23:44:33.542Z,15.50
2022-12-04T23:47:01.676Z,15.30
2022-12-04T23:49:29.832Z,15.20
2022-12-04T23:51:57.761Z,15.20
2022-12-04T23:54:25.747Z,15.20
2022-12-04T23:56:53.702Z,15.10
2022-12-04T23:59:21.948Z,14.80
